sensor_id;sensor_type;location;lat;lon;timestamp;temperature;humidity
2012;DHT22;1009;51.436;6.972;2022-08-03T00:01:08;22.30;99.90
2012;DHT22;1009;51.436;6.972;2022-08-03T00:03:34;22.30;99.90
2012;DHT22;1009;51.436;6.972;2022-08-03T00:06:01;22.20;99.90
2012;DHT22;1009;51.436;6.972;2022-08-03T00:08:29;22.20;99.90
2012;DHT22;1009;51.436;6.972;2022-08-03T00:10:56;22.20;99.90
2012;DHT22;1009;51.436;6.972;2022-08-03T00:13:24;22.20;99.90
2012;DHT22;1009;51.436;6.972;2022-08-03T00:15:51;22.20;99.90
2012;DHT22;1009;51.436;6.972;2022-08-03T00:18:18;22.20;99.90
2012;DHT22;1009;51.436;6.972;2022-08-03T00:20:44;22.10;99.90
2012;DHT22;1009;51.436;6.972;2022-08-03T00:23:12;22.20;99.90
2012;DHT22;1009;51.436;6.972;2022-08-03T00:25:40;22.10;99.90
2012;DHT22;1009;51.436;6.972;2022-08-03T00:28:07;22.10;99.90
2012;DHT22;1009;51.436;6.972;2022-08-03T00:30:34;22.10;99.90
2012;DHT22;1009;51.436;6.972;2022-08-03T00:33:01;22.10;99.90
2012;DHT22;1009;51.436;6.972;2022-08-03T00:35:28;22.10;99.90
2012;DHT22;1009;51.436;6.972;2022-08-03T00:37:55;22.10;99.90
2012;DHT22;1009;51.436;6.972;2022-08-03T00:40:22;22.10;99.90
2012;DHT22;1009;51.436;6.972;2022-08-03T00:42:53;22.10;99.90
2012;DHT22;1009;51.436;6.972;2022-08-03T00:45:21;22.00;99.90
2012;DHT22;1009;51.436;6.972;2022-08-03T00:47:48;22.00;99.90
2012;DHT22;1009;51.436;6.972;2022-08-03T00:50:16;22.00;99.90
2012;DHT22;1009;51.436;6.972;2022-08-03T00:52:44;22.00;99.90
2012;DHT22;1009;51.436;6.972;2022-08-03T00:55:11;22.00;99.90
2012;DHT22;1009;51.436;6.972;2022-08-03T00:57:42;22.00;99.90
2012;DHT22;1009;51.436;6.972;2022-08-03T01:00:13;22.00;99.90
2012;DHT22;1009;51.436;6.972;2022-08-03T01:02:41;22.00;99.90
2012;DHT22;1009;51.436;6.972;2022-08-03T01:05:08;22.00;99.90
2012;DHT22;1009;51.436;6.972;2022-08-03T01:07:41;21.90;99.90
2012;DHT22;1009;51.436;6.972;2022-08-03T01:10:16;21.90;99.90
2012;DHT22;1009;51.436;6.972;2022-08-03T01:12:51;21.90;99.90
2012;DHT22;1009;51.436;6.972;2022-08-03T01:15:28;21.80;99.90
2012;DHT22;1009;51.436;6.972;2022-08-03T01:18:02;21.70;99.90
2012;DHT22;1009;51.436;6.972;2022-08-03T01:20:33;21.70;99.90
2012;DHT22;1009;51.436;6.972;2022-08-03T01:23:21;21.70;99.90
2012;DHT22;1009;51.436;6.972;2022-08-03T01:29:07;21.70;99.90
2012;DHT22;1009;51.436;6.972;2022-08-03T01:31:43;21.70;99.90
2012;DHT22;1009;51.436;6.972;2022-08-03T01:34:13;21.70;99.90
2012;DHT22;1009;51.436;6.972;2022-08-03T01:36:45;21.80;99.90
2012;DHT22;1009;51.436;6.972;2022-08-03T01:39:15;21.80;99.90
2012;DHT22;1009;51.436;6.972;2022-08-03T01:41:47;21.90;99.90
2012;DHT22;1009;51.436;6.972;2022-08-03T01:44:15;21.90;99.90
2012;DHT22;1009;51.436;6.972;2022-08-03T01:46:43;22.00;99.90
2012;DHT22;1009;51.436;6.972;2022-08-03T01:49:14;22.00;99.90
2012;DHT22;1009;51.436;6.972;2022-08-03T01:51:44;21.90;99.90
2012;DHT22;1009;51.436;6.972;2022-08-03T01:54:11;21.90;99.90
2012;DHT22;1009;51.436;6.972;2022-08-03T01:56:39;21.90;99.90
2012;DHT22;1009;51.436;6.972;2022-08-03T01:59:08;21.90;99.90
2012;DHT22;1009;51.436;6.972;2022-08-03T02:01:36;21.90;99.90
2012;DHT22;1009;51.436;6.972;2022-08-03T02:04:06;22.00;99.90
2012;DHT22;1009;51.436;6.972;2022-08-03T02:06:33;22.00;99.90
2012;DHT22;1009;51.436;6.972;2022-08-03T02:09:01;22.10;99.90
2012;DHT22;1009;51.436;6.972;2022-08-03T02:11:30;22.00;99.90
2012;DHT22;1009;51.436;6.972;2022-08-03T02:13:57;22.10;99.90
2012;DHT22;1009;51.436;6.972;2022-08-03T02:16:27;22.10;99.90
2012;DHT22;1009;51.436;6.972;2022-08-03T02:18:57;22.10;99.90
2012;DHT22;1009;51.436;6.972;2022-08-03T02:21:28;22.10;99.90
2012;DHT22;1009;51.436;6.972;2022-08-03T02:23:55;22.10;99.90
2012;DHT22;1009;51.436;6.972;2022-08-03T02:26:23;22.10;99.90
2012;DHT22;1009;51.436;6.972;2022-08-03T02:28:52;22.10;99.90
2012;DHT22;1009;51.436;6.972;2022-08-03T02:31:27;22.10;99.90
2012;DHT22;1009;51.436;6.972;2022-08-03T02:33:57;22.10;99.90
2012;DHT22;1009;51.436;6.972;2022-08-03T02:36:28;22.10;99.90
2012;DHT22;1009;51.436;6.972;2022-08-03T02:38:58;22.10;99.90
2012;DHT22;1009;51.436;6.972;2022-08-03T02:41:29;22.10;99.90
2012;DHT22;1009;51.436;6.972;2022-08-03T02:43:59;22.10;99.90
2012;DHT22;1009;51.436;6.972;2022-08-03T02:46:30;22.10;99.90
2012;DHT22;1009;51.436;6.972;2022-08-03T02:49:00;22.10;99.90
2012;DHT22;1009;51.436;6.972;2022-08-03T02:51:30;22.00;99.90
2012;DHT22;1009;51.436;6.972;2022-08-03T02:53:58;22.00;99.90
2012;DHT22;1009;51.436;6.972;2022-08-03T02:56:26;22.00;99.90
2012;DHT22;1009;51.436;6.972;2022-08-03T02:58:54;22.00;99.90
2012;DHT22;1009;51.436;6.972;2022-08-03T03:01:22;22.00;99.90
2012;DHT22;1009;51.436;6.972;2022-08-03T03:03:50;22.00;99.90
2012;DHT22;1009;51.436;6.972;2022-08-03T03:06:17;22.00;99.90
2012;DHT22;1009;51.436;6.972;2022-08-03T03:08:47;22.00;99.90
2012;DHT22;1009;51.436;6.972;2022-08-03T03:11:17;22.00;99.90
2012;DHT22;1009;51.436;6.972;2022-08-03T03:13:45;21.90;99.90
2012;DHT22;1009;51.436;6.972;2022-08-03T03:16:13;21.90;99.90
2012;DHT22;1009;51.436;6.972;2022-08-03T03:18:42;21.90;99.90
2012;DHT22;1009;51.436;6.972;2022-08-03T03:21:10;21.90;99.90
2012;DHT22;1009;51.436;6.972;2022-08-03T03:23:39;21.90;99.90
2012;DHT22;1009;51.436;6.972;2022-08-03T03:26:08;21.90;99.90
2012;DHT22;1009;51.436;6.972;2022-08-03T03:28:35;21.90;99.90
2012;DHT22;1009;51.436;6.972;2022-08-03T03:31:12;21.80;99.90
2012;DHT22;1009;51.436;6.972;2022-08-03T03:33:39;21.90;99.90
2012;DHT22;1009;51.436;6.972;2022-08-03T03:36:09;21.90;99.90
2012;DHT22;1009;51.436;6.972;2022-08-03T03:38:36;21.80;99.90
2012;DHT22;1009;51.436;6.972;2022-08-03T03:41:04;21.80;99.90
2012;DHT22;1009;51.436;6.972;2022-08-03T03:43:32;21.80;99.90
2012;DHT22;1009;51.436;6.972;2022-08-03T03:45:59;21.80;99.90
2012;DHT22;1009;51.436;6.972;2022-08-03T03:48:27;21.80;99.90
2012;DHT22;1009;51.436;6.972;2022-08-03T03:50:54;21.80;99.90
2012;DHT22;1009;51.436;6.972;2022-08-03T03:53:21;21.80;99.90
2012;DHT22;1009;51.436;6.972;2022-08-03T03:55:49;21.80;99.90
2012;DHT22;1009;51.436;6.972;2022-08-03T03:58:17;21.80;99.90
2012;DHT22;1009;51.436;6.972;2022-08-03T04:00:45;21.80;99.90
2012;DHT22;1009;51.436;6.972;2022-08-03T04:03:12;21.80;99.90
2012;DHT22;1009;51.436;6.972;2022-08-03T04:05:39;21.80;99.90
2012;DHT22;1009;51.436;6.972;2022-08-03T04:08:22;21.80;99.90
2012;DHT22;1009;51.436;6.972;2022-08-03T04:11:12;21.80;99.90
2012;DHT22;1009;51.436;6.972;2022-08-03T04:13:49;21.70;99.90
2012;DHT22;1009;51.436;6.972;2022-08-03T04:16:21;21.70;99.90
2012;DHT22;1009;51.436;6.972;2022-08-03T04:18:52;21.70;99.90
2012;DHT22;1009;51.436;6.972;2022-08-03T04:21:21;21.70;99.90
2012;DHT22;1009;51.436;6.972;2022-08-03T04:23:50;21.70;99.90
2012;DHT22;1009;51.436;6.972;2022-08-03T04:26:19;21.70;99.90
2012;DHT22;1009;51.436;6.972;2022-08-03T04:28:47;21.70;99.90
2012;DHT22;1009;51.436;6.972;2022-08-03T04:31:18;21.70;99.90
2012;DHT22;1009;51.436;6.972;2022-08-03T04:33:46;21.60;99.90
2012;DHT22;1009;51.436;6.972;2022-08-03T04:36:18;21.60;99.90
2012;DHT22;1009;51.436;6.972;2022-08-03T04:38:56;21.70;99.90
2012;DHT22;1009;51.436;6.972;2022-08-03T04:41:25;21.70;99.90
2012;DHT22;1009;51.436;6.972;2022-08-03T04:43:54;21.70;99.90
2012;DHT22;1009;51.436;6.972;2022-08-03T04:46:25;21.70;99.90
2012;DHT22;1009;51.436;6.972;2022-08-03T04:48:54;21.70;99.90
2012;DHT22;1009;51.436;6.972;2022-08-03T04:51:21;21.70;99.90
2012;DHT22;1009;51.436;6.972;2022-08-03T04:53:48;21.70;99.90
2012;DHT22;1009;51.436;6.972;2022-08-03T04:56:15;21.70;99.90
2012;DHT22;1009;51.436;6.972;2022-08-03T04:58:42;21.70;99.90
2012;DHT22;1009;51.436;6.972;2022-08-03T05:01:08;21.70;99.90
2012;DHT22;1009;51.436;6.972;2022-08-03T05:03:37;21.80;99.90
2012;DHT22;1009;51.436;6.972;2022-08-03T05:06:03;21.80;99.90
2012;DHT22;1009;51.436;6.972;2022-08-03T05:08:30;21.80;99.90
2012;DHT22;1009;51.436;6.972;2022-08-03T05:10:57;21.80;99.90
2012;DHT22;1009;51.436;6.972;2022-08-03T05:18:35;21.80;99.90
2012;DHT22;1009;51.436;6.972;2022-08-03T05:21:03;21.90;99.90
2012;DHT22;1009;51.436;6.972;2022-08-03T05:23:30;21.90;99.90
2012;DHT22;1009;51.436;6.972;2022-08-03T05:25:57;21.90;99.90
2012;DHT22;1009;51.436;6.972;2022-08-03T05:28:24;22.00;99.90
2012;DHT22;1009;51.436;6.972;2022-08-03T05:30:51;22.00;99.90
2012;DHT22;1009;51.436;6.972;2022-08-03T05:33:17;22.10;99.90
2012;DHT22;1009;51.436;6.972;2022-08-03T05:35:44;22.10;99.90
2012;DHT22;1009;51.436;6.972;2022-08-03T05:38:13;22.10;99.90
2012;DHT22;1009;51.436;6.972;2022-08-03T05:40:39;22.20;99.90
2012;DHT22;1009;51.436;6.972;2022-08-03T05:43:06;22.30;99.90
2012;DHT22;1009;51.436;6.972;2022-08-03T05:45:33;22.40;99.90
2012;DHT22;1009;51.436;6.972;2022-08-03T05:48:00;22.40;99.90
2012;DHT22;1009;51.436;6.972;2022-08-03T05:50:27;22.40;99.90
2012;DHT22;1009;51.436;6.972;2022-08-03T05:52:55;22.50;99.90
2012;DHT22;1009;51.436;6.972;2022-08-03T05:55:24;22.50;99.90
2012;DHT22;1009;51.436;6.972;2022-08-03T05:57:51;22.60;99.90
2012;DHT22;1009;51.436;6.972;2022-08-03T06:00:18;22.70;99.90
2012;DHT22;1009;51.436;6.972;2022-08-03T06:02:45;22.80;99.90
2012;DHT22;1009;51.436;6.972;2022-08-03T06:05:12;22.80;99.90
2012;DHT22;1009;51.436;6.972;2022-08-03T06:07:39;22.80;99.90
2012;DHT22;1009;51.436;6.972;2022-08-03T06:10:07;22.90;99.90
2012;DHT22;1009;51.436;6.972;2022-08-03T06:12:35;23.00;99.90
2012;DHT22;1009;51.436;6.972;2022-08-03T06:15:04;23.10;99.90
2012;DHT22;1009;51.436;6.972;2022-08-03T06:17:30;23.20;99.90
2012;DHT22;1009;51.436;6.972;2022-08-03T06:19:57;23.30;99.90
2012;DHT22;1009;51.436;6.972;2022-08-03T06:22:24;23.50;99.90
2012;DHT22;1009;51.436;6.972;2022-08-03T06:24:51;23.60;99.90
2012;DHT22;1009;51.436;6.972;2022-08-03T06:27:18;23.70;99.90
2012;DHT22;1009;51.436;6.972;2022-08-03T06:29:46;23.80;99.90
2012;DHT22;1009;51.436;6.972;2022-08-03T06:32:13;23.80;99.90
2012;DHT22;1009;51.436;6.972;2022-08-03T06:34:39;23.90;99.90
2012;DHT22;1009;51.436;6.972;2022-08-03T06:37:06;23.90;99.90
2012;DHT22;1009;51.436;6.972;2022-08-03T06:39:33;24.00;99.90
2012;DHT22;1009;51.436;6.972;2022-08-03T06:42:00;24.10;99.90
2012;DHT22;1009;51.436;6.972;2022-08-03T06:44:26;24.20;99.90
2012;DHT22;1009;51.436;6.972;2022-08-03T06:46:55;24.30;99.90
2012;DHT22;1009;51.436;6.972;2022-08-03T06:49:21;24.60;99.90
2012;DHT22;1009;51.436;6.972;2022-08-03T06:51:48;24.60;99.90
2012;DHT22;1009;51.436;6.972;2022-08-03T06:54:18;24.70;99.90
2012;DHT22;1009;51.436;6.972;2022-08-03T06:56:46;24.80;99.90
2012;DHT22;1009;51.436;6.972;2022-08-03T06:59:13;24.90;99.90
2012;DHT22;1009;51.436;6.972;2022-08-03T07:01:40;25.00;99.90
2012;DHT22;1009;51.436;6.972;2022-08-03T07:04:08;25.10;99.90
2012;DHT22;1009;51.436;6.972;2022-08-03T07:06:36;25.10;99.90
2012;DHT22;1009;51.436;6.972;2022-08-03T07:09:03;25.20;99.90
2012;DHT22;1009;51.436;6.972;2022-08-03T07:11:30;25.10;99.90
2012;DHT22;1009;51.436;6.972;2022-08-03T07:13:56;25.10;99.90
2012;DHT22;1009;51.436;6.972;2022-08-03T07:16:23;25.20;99.90
2012;DHT22;1009;51.436;6.972;2022-08-03T07:18:50;25.30;99.90
2012;DHT22;1009;51.436;6.972;2022-08-03T07:21:18;25.30;99.90
2012;DHT22;1009;51.436;6.972;2022-08-03T07:23:45;25.30;99.90
2012;DHT22;1009;51.436;6.972;2022-08-03T07:26:11;25.30;99.90
2012;DHT22;1009;51.436;6.972;2022-08-03T07:28:38;25.40;99.90
2012;DHT22;1009;51.436;6.972;2022-08-03T07:31:05;25.50;99.90
2012;DHT22;1009;51.436;6.972;2022-08-03T07:33:34;25.50;99.90
2012;DHT22;1009;51.436;6.972;2022-08-03T07:36:01;25.50;99.90
2012;DHT22;1009;51.436;6.972;2022-08-03T07:38:50;25.50;99.90
2012;DHT22;1009;51.436;6.972;2022-08-03T07:41:17;25.50;99.90
2012;DHT22;1009;51.436;6.972;2022-08-03T07:43:44;25.50;99.90
2012;DHT22;1009;51.436;6.972;2022-08-03T07:46:10;25.60;99.90
2012;DHT22;1009;51.436;6.972;2022-08-03T07:48:37;25.50;99.90
2012;DHT22;1009;51.436;6.972;2022-08-03T07:51:04;25.70;99.90
2012;DHT22;1009;51.436;6.972;2022-08-03T07:53:31;25.70;99.90
2012;DHT22;1009;51.436;6.972;2022-08-03T07:55:59;25.90;99.90
2012;DHT22;1009;51.436;6.972;2022-08-03T07:58:25;26.00;99.90
2012;DHT22;1009;51.436;6.972;2022-08-03T08:00:52;26.10;99.90
2012;DHT22;1009;51.436;6.972;2022-08-03T08:03:19;26.20;99.90
2012;DHT22;1009;51.436;6.972;2022-08-03T08:05:46;26.30;99.90
2012;DHT22;1009;51.436;6.972;2022-08-03T08:08:13;26.40;99.90
2012;DHT22;1009;51.436;6.972;2022-08-03T08:10:39;26.60;99.90
2012;DHT22;1009;51.436;6.972;2022-08-03T08:13:07;26.70;99.90
2012;DHT22;1009;51.436;6.972;2022-08-03T08:15:34;26.80;99.90
2012;DHT22;1009;51.436;6.972;2022-08-03T08:18:01;27.00;99.90
2012;DHT22;1009;51.436;6.972;2022-08-03T08:20:29;27.20;99.90
2012;DHT22;1009;51.436;6.972;2022-08-03T08:22:57;27.20;99.90
2012;DHT22;1009;51.436;6.972;2022-08-03T08:25:24;27.30;99.90
2012;DHT22;1009;51.436;6.972;2022-08-03T08:27:51;27.40;99.90
2012;DHT22;1009;51.436;6.972;2022-08-03T08:30:21;27.50;99.90
2012;DHT22;1009;51.436;6.972;2022-08-03T08:32:49;27.70;99.90
2012;DHT22;1009;51.436;6.972;2022-08-03T08:35:16;27.80;99.90
2012;DHT22;1009;51.436;6.972;2022-08-03T08:37:44;27.80;99.90
2012;DHT22;1009;51.436;6.972;2022-08-03T08:40:11;27.90;99.90
2012;DHT22;1009;51.436;6.972;2022-08-03T08:42:39;27.90;99.90
2012;DHT22;1009;51.436;6.972;2022-08-03T08:45:07;28.00;99.90
2012;DHT22;1009;51.436;6.972;2022-08-03T08:47:38;28.20;99.90
2012;DHT22;1009;51.436;6.972;2022-08-03T08:50:06;28.20;99.90
2012;DHT22;1009;51.436;6.972;2022-08-03T08:52:34;28.30;99.90
2012;DHT22;1009;51.436;6.972;2022-08-03T08:55:03;28.30;99.90
2012;DHT22;1009;51.436;6.972;2022-08-03T08:57:33;28.40;99.90
2012;DHT22;1009;51.436;6.972;2022-08-03T09:00:04;28.40;99.90
2012;DHT22;1009;51.436;6.972;2022-08-03T09:02:32;28.40;99.90
2012;DHT22;1009;51.436;6.972;2022-08-03T09:05:00;28.50;99.90
2012;DHT22;1009;51.436;6.972;2022-08-03T09:07:27;28.70;99.90
2012;DHT22;1009;51.436;6.972;2022-08-03T09:09:54;28.70;99.90
2012;DHT22;1009;51.436;6.972;2022-08-03T09:12:21;28.90;99.90
2012;DHT22;1009;51.436;6.972;2022-08-03T09:14:48;28.90;99.90
2012;DHT22;1009;51.436;6.972;2022-08-03T09:17:15;29.00;99.90
2012;DHT22;1009;51.436;6.972;2022-08-03T09:19:42;29.00;99.90
2012;DHT22;1009;51.436;6.972;2022-08-03T09:22:15;29.00;99.90
2012;DHT22;1009;51.436;6.972;2022-08-03T09:24:53;29.10;99.90
2012;DHT22;1009;51.436;6.972;2022-08-03T09:27:21;29.20;99.90
2012;DHT22;1009;51.436;6.972;2022-08-03T09:29:49;29.20;99.90
2012;DHT22;1009;51.436;6.972;2022-08-03T09:32:19;29.30;99.90
2012;DHT22;1009;51.436;6.972;2022-08-03T09:34:46;29.30;99.90
2012;DHT22;1009;51.436;6.972;2022-08-03T09:37:16;29.30;99.90
2012;DHT22;1009;51.436;6.972;2022-08-03T09:39:43;29.50;99.90
2012;DHT22;1009;51.436;6.972;2022-08-03T09:42:13;29.40;99.90
2012;DHT22;1009;51.436;6.972;2022-08-03T09:44:42;29.30;99.90
2012;DHT22;1009;51.436;6.972;2022-08-03T09:47:11;29.30;99.90
2012;DHT22;1009;51.436;6.972;2022-08-03T09:49:39;29.50;99.90
2012;DHT22;1009;51.436;6.972;2022-08-03T09:52:15;29.40;99.90
2012;DHT22;1009;51.436;6.972;2022-08-03T09:54:43;29.50;99.90
2012;DHT22;1009;51.436;6.972;2022-08-03T09:57:20;29.60;99.90
2012;DHT22;1009;51.436;6.972;2022-08-03T09:59:48;29.80;99.90
2012;DHT22;1009;51.436;6.972;2022-08-03T10:02:23;30.00;99.90
2012;DHT22;1009;51.436;6.972;2022-08-03T10:04:51;30.00;99.90
2012;DHT22;1009;51.436;6.972;2022-08-03T10:07:22;30.00;99.90
2012;DHT22;1009;51.436;6.972;2022-08-03T10:09:54;30.00;99.90
2012;DHT22;1009;51.436;6.972;2022-08-03T10:12:21;29.90;99.90
2012;DHT22;1009;51.436;6.972;2022-08-03T10:14:48;29.80;99.90
2012;DHT22;1009;51.436;6.972;2022-08-03T10:17:15;29.70;99.90
2012;DHT22;1009;51.436;6.972;2022-08-03T10:19:42;29.70;99.90
2012;DHT22;1009;51.436;6.972;2022-08-03T10:22:12;29.80;99.90
2012;DHT22;1009;51.436;6.972;2022-08-03T10:24:47;29.90;99.90
2012;DHT22;1009;51.436;6.972;2022-08-03T10:27:16;30.10;99.90
2012;DHT22;1009;51.436;6.972;2022-08-03T10:29:46;30.30;99.90
2012;DHT22;1009;51.436;6.972;2022-08-03T10:32:18;30.50;99.90
2012;DHT22;1009;51.436;6.972;2022-08-03T10:34:50;30.50;99.90
2012;DHT22;1009;51.436;6.972;2022-08-03T10:37:20;30.60;99.90
2012;DHT22;1009;51.436;6.972;2022-08-03T10:39:52;30.60;99.90
2012;DHT22;1009;51.436;6.972;2022-08-03T10:42:20;30.60;99.90
2012;DHT22;1009;51.436;6.972;2022-08-03T10:44:50;30.70;99.90
2012;DHT22;1009;51.436;6.972;2022-08-03T10:47:18;30.70;99.90
2012;DHT22;1009;51.436;6.972;2022-08-03T10:53:09;31.00;99.90
2012;DHT22;1009;51.436;6.972;2022-08-03T10:55:38;31.10;99.90
2012;DHT22;1009;51.436;6.972;2022-08-03T10:58:48;31.20;99.90
2012;DHT22;1009;51.436;6.972;2022-08-03T11:01:16;31.30;99.90
2012;DHT22;1009;51.436;6.972;2022-08-03T11:04:15;31.50;99.90
2012;DHT22;1009;51.436;6.972;2022-08-03T11:06:43;31.40;99.90
2012;DHT22;1009;51.436;6.972;2022-08-03T11:09:15;31.40;99.90
2012;DHT22;1009;51.436;6.972;2022-08-03T11:11:45;31.40;99.90
2012;DHT22;1009;51.436;6.972;2022-08-03T11:14:14;31.50;98.80
2012;DHT22;1009;51.436;6.972;2022-08-03T11:16:42;31.50;98.20
2012;DHT22;1009;51.436;6.972;2022-08-03T11:19:11;31.70;98.90
2012;DHT22;1009;51.436;6.972;2022-08-03T11:21:52;31.70;98.00
2012;DHT22;1009;51.436;6.972;2022-08-03T11:24:55;31.70;99.20
2012;DHT22;1009;51.436;6.972;2022-08-03T11:27:25;31.70;97.20
2012;DHT22;1009;51.436;6.972;2022-08-03T11:29:57;31.60;95.60
2012;DHT22;1009;51.436;6.972;2022-08-03T11:32:51;31.50;97.10
2012;DHT22;1009;51.436;6.972;2022-08-03T11:35:19;31.60;97.70
2012;DHT22;1009;51.436;6.972;2022-08-03T11:38:10;31.70;97.00
2012;DHT22;1009;51.436;6.972;2022-08-03T11:40:42;31.70;94.90
2012;DHT22;1009;51.436;6.972;2022-08-03T11:43:44;31.90;95.70
2012;DHT22;1009;51.436;6.972;2022-08-03T11:46:12;32.20;96.80
2012;DHT22;1009;51.436;6.972;2022-08-03T11:48:44;32.40;98.10
2012;DHT22;1009;51.436;6.972;2022-08-03T11:51:19;32.60;96.10
2012;DHT22;1009;51.436;6.972;2022-08-03T11:53:47;32.80;94.30
2012;DHT22;1009;51.436;6.972;2022-08-03T11:56:16;32.80;96.80
2012;DHT22;1009;51.436;6.972;2022-08-03T11:58:48;32.80;91.70
2012;DHT22;1009;51.436;6.972;2022-08-03T12:01:17;32.80;91.60
2012;DHT22;1009;51.436;6.972;2022-08-03T12:03:44;32.70;94.60
2012;DHT22;1009;51.436;6.972;2022-08-03T12:06:12;32.40;93.20
2012;DHT22;1009;51.436;6.972;2022-08-03T12:08:40;32.50;94.70
2012;DHT22;1009;51.436;6.972;2022-08-03T12:11:08;32.50;92.40
2012;DHT22;1009;51.436;6.972;2022-08-03T12:13:41;32.50;92.90
2012;DHT22;1009;51.436;6.972;2022-08-03T12:16:10;32.50;93.00
2012;DHT22;1009;51.436;6.972;2022-08-03T12:18:42;32.40;92.70
2012;DHT22;1009;51.436;6.972;2022-08-03T12:21:10;32.50;91.80
2012;DHT22;1009;51.436;6.972;2022-08-03T12:23:38;32.60;92.30
2012;DHT22;1009;51.436;6.972;2022-08-03T12:26:06;32.40;91.20
2012;DHT22;1009;51.436;6.972;2022-08-03T12:28:33;32.30;91.60
2012;DHT22;1009;51.436;6.972;2022-08-03T12:31:01;32.60;91.40
2012;DHT22;1009;51.436;6.972;2022-08-03T12:33:53;32.80;91.50
2012;DHT22;1009;51.436;6.972;2022-08-03T12:36:19;32.50;91.40
2012;DHT22;1009;51.436;6.972;2022-08-03T12:38:53;32.40;91.60
2012;DHT22;1009;51.436;6.972;2022-08-03T12:41:27;32.40;93.40
2012;DHT22;1009;51.436;6.972;2022-08-03T12:43:54;32.40;91.70
2012;DHT22;1009;51.436;6.972;2022-08-03T12:46:21;32.30;91.00
2012;DHT22;1009;51.436;6.972;2022-08-03T12:49:06;32.20;91.50
2012;DHT22;1009;51.436;6.972;2022-08-03T12:51:35;32.40;91.70
2012;DHT22;1009;51.436;6.972;2022-08-03T12:54:03;32.60;91.60
2012;DHT22;1009;51.436;6.972;2022-08-03T12:56:30;32.80;92.20
2012;DHT22;1009;51.436;6.972;2022-08-03T12:58:57;32.50;93.00
2012;DHT22;1009;51.436;6.972;2022-08-03T13:01:23;32.70;92.60
2012;DHT22;1009;51.436;6.972;2022-08-03T13:03:52;33.10;94.90
2012;DHT22;1009;51.436;6.972;2022-08-03T13:06:22;33.30;91.20
2012;DHT22;1009;51.436;6.972;2022-08-03T13:09:00;33.50;90.70
2012;DHT22;1009;51.436;6.972;2022-08-03T13:11:27;33.60;91.10
2012;DHT22;1009;51.436;6.972;2022-08-03T13:13:54;33.60;89.00
2012;DHT22;1009;51.436;6.972;2022-08-03T13:16:21;33.70;88.40
2012;DHT22;1009;51.436;6.972;2022-08-03T13:18:49;33.60;90.50
2012;DHT22;1009;51.436;6.972;2022-08-03T13:21:19;33.60;85.50
2012;DHT22;1009;51.436;6.972;2022-08-03T13:23:46;33.90;85.80
2012;DHT22;1009;51.436;6.972;2022-08-03T13:26:14;33.70;80.90
2012;DHT22;1009;51.436;6.972;2022-08-03T13:28:41;33.90;89.70
2012;DHT22;1009;51.436;6.972;2022-08-03T13:31:07;33.90;83.50
2012;DHT22;1009;51.436;6.972;2022-08-03T13:33:34;33.80;89.90
2012;DHT22;1009;51.436;6.972;2022-08-03T13:36:01;33.70;80.10
2012;DHT22;1009;51.436;6.972;2022-08-03T13:38:29;33.70;77.40
2012;DHT22;1009;51.436;6.972;2022-08-03T13:40:57;33.80;81.50
2012;DHT22;1009;51.436;6.972;2022-08-03T13:43:25;34.00;81.00
2012;DHT22;1009;51.436;6.972;2022-08-03T13:45:51;34.00;82.50
2012;DHT22;1009;51.436;6.972;2022-08-03T13:48:18;34.00;83.80
2012;DHT22;1009;51.436;6.972;2022-08-03T13:50:45;33.60;76.50
2012;DHT22;1009;51.436;6.972;2022-08-03T13:53:12;33.70;78.60
2012;DHT22;1009;51.436;6.972;2022-08-03T13:55:40;33.90;79.10
2012;DHT22;1009;51.436;6.972;2022-08-03T13:58:06;34.00;82.10
2012;DHT22;1009;51.436;6.972;2022-08-03T14:00:36;34.00;77.50
2012;DHT22;1009;51.436;6.972;2022-08-03T14:03:04;34.10;74.50
2012;DHT22;1009;51.436;6.972;2022-08-03T14:05:31;34.30;77.60
2012;DHT22;1009;51.436;6.972;2022-08-03T14:07:57;34.30;77.10
2012;DHT22;1009;51.436;6.972;2022-08-03T14:10:25;34.20;74.40
2012;DHT22;1009;51.436;6.972;2022-08-03T14:12:53;34.10;74.30
2012;DHT22;1009;51.436;6.972;2022-08-03T14:15:21;34.00;77.80
2012;DHT22;1009;51.436;6.972;2022-08-03T14:17:48;33.70;74.40
2012;DHT22;1009;51.436;6.972;2022-08-03T14:20:14;33.40;72.50
2012;DHT22;1009;51.436;6.972;2022-08-03T14:22:41;33.30;73.30
2012;DHT22;1009;51.436;6.972;2022-08-03T14:25:08;33.30;75.20
2012;DHT22;1009;51.436;6.972;2022-08-03T14:27:35;33.30;78.80
2012;DHT22;1009;51.436;6.972;2022-08-03T14:30:04;33.40;74.00
2012;DHT22;1009;51.436;6.972;2022-08-03T14:32:31;33.50;72.20
2012;DHT22;1009;51.436;6.972;2022-08-03T14:34:58;33.60;74.70
2012;DHT22;1009;51.436;6.972;2022-08-03T14:37:24;33.80;71.20
2012;DHT22;1009;51.436;6.972;2022-08-03T14:39:54;33.80;70.60
2012;DHT22;1009;51.436;6.972;2022-08-03T14:42:21;33.80;74.00
2012;DHT22;1009;51.436;6.972;2022-08-03T14:44:48;33.70;68.70
2012;DHT22;1009;51.436;6.972;2022-08-03T14:47:16;33.70;71.20
2012;DHT22;1009;51.436;6.972;2022-08-03T14:49:43;33.90;75.00
2012;DHT22;1009;51.436;6.972;2022-08-03T14:52:09;33.70;70.20
2012;DHT22;1009;51.436;6.972;2022-08-03T14:54:37;33.70;72.20
2012;DHT22;1009;51.436;6.972;2022-08-03T14:57:04;33.80;70.40
2012;DHT22;1009;51.436;6.972;2022-08-03T14:59:30;33.80;72.10
2012;DHT22;1009;51.436;6.972;2022-08-03T15:02:00;33.70;68.20
2012;DHT22;1009;51.436;6.972;2022-08-03T15:04:28;33.70;68.00
2012;DHT22;1009;51.436;6.972;2022-08-03T15:06:55;33.80;66.00
2012;DHT22;1009;51.436;6.972;2022-08-03T15:09:22;33.80;67.30
2012;DHT22;1009;51.436;6.972;2022-08-03T15:11:48;33.60;68.20
2012;DHT22;1009;51.436;6.972;2022-08-03T15:14:18;33.70;70.50
2012;DHT22;1009;51.436;6.972;2022-08-03T15:16:44;33.60;71.60
2012;DHT22;1009;51.436;6.972;2022-08-03T15:19:11;33.50;68.80
2012;DHT22;1009;51.436;6.972;2022-08-03T15:21:39;33.50;73.00
2012;DHT22;1009;51.436;6.972;2022-08-03T15:24:06;33.20;76.40
2012;DHT22;1009;51.436;6.972;2022-08-03T15:26:33;32.90;71.50
2012;DHT22;1009;51.436;6.972;2022-08-03T15:29:00;32.50;70.30
2012;DHT22;1009;51.436;6.972;2022-08-03T15:31:27;32.20;67.10
2012;DHT22;1009;51.436;6.972;2022-08-03T15:33:54;31.90;67.10
2012;DHT22;1009;51.436;6.972;2022-08-03T15:36:21;31.90;66.50
2012;DHT22;1009;51.436;6.972;2022-08-03T15:38:50;32.00;66.50
2012;DHT22;1009;51.436;6.972;2022-08-03T15:41:17;32.00;67.00
2012;DHT22;1009;51.436;6.972;2022-08-03T15:43:44;32.10;68.00
2012;DHT22;1009;51.436;6.972;2022-08-03T15:46:12;32.20;70.70
2012;DHT22;1009;51.436;6.972;2022-08-03T15:48:48;32.00;65.80
2012;DHT22;1009;51.436;6.972;2022-08-03T15:51:14;31.90;67.20
2012;DHT22;1009;51.436;6.972;2022-08-03T15:53:41;31.60;71.60
2012;DHT22;1009;51.436;6.972;2022-08-03T15:56:10;31.20;74.80
2012;DHT22;1009;51.436;6.972;2022-08-03T15:58:36;31.10;70.00
2012;DHT22;1009;51.436;6.972;2022-08-03T16:01:05;31.00;69.20
2012;DHT22;1009;51.436;6.972;2022-08-03T16:03:32;31.10;69.10
2012;DHT22;1009;51.436;6.972;2022-08-03T16:06:00;31.10;68.50
2012;DHT22;1009;51.436;6.972;2022-08-03T16:08:27;31.10;68.40
2012;DHT22;1009;51.436;6.972;2022-08-03T16:10:54;31.20;67.00
2012;DHT22;1009;51.436;6.972;2022-08-03T16:13:22;31.20;69.00
2012;DHT22;1009;51.436;6.972;2022-08-03T16:15:49;31.20;71.60
2012;DHT22;1009;51.436;6.972;2022-08-03T16:18:16;31.10;72.70
2012;DHT22;1009;51.436;6.972;2022-08-03T16:20:43;30.80;72.00
2012;DHT22;1009;51.436;6.972;2022-08-03T16:23:11;30.70;70.50
2012;DHT22;1009;51.436;6.972;2022-08-03T16:25:38;30.70;70.10